Time;durP1;ratioP1;P1;durP2;ratioP2;P2;SDS_P1;SDS_P2;PMS_P1;PMS_P2;Temp;Humidity;BMP_temperature;BMP_pressure;BME280_temperature;BME280_humidity;BME280_pressure;Samples;Min_cycle;Max_cycle;Signal;HPM_P1;HPM_P2
2023/09/15 00:00:42;;;;;;;42.13;31.38;;;;;;;;;;5009968;28;20124;-71
2023/09/15 00:03:09;;;;;;;41.97;30.90;;;;;;;;;;5005746;28;20038;-70
2023/09/15 00:05:37;;;;;;;44.08;32.50;;;;;;;;;;5009880;28;20034;-70
2023/09/15 00:08:04;;;;;;;48.95;34.50;;;;;;;;;;5001965;28;20069;-71
2023/09/15 00:10:31;;;;;;;43.38;33.90;;;;;;;;;;5008766;28;20034;-71
2023/09/15 00:12:58;;;;;;;44.30;33.92;;;;;;;;;;5023196;28;20058;-71
2023/09/15 00:15:24;;;;;;;50.85;36.83;;;;;;;;;;5014325;28;20117;-71
2023/09/15 00:17:51;;;;;;;51.15;37.25;;;;;;;;;;5004592;28;20058;-70
2023/09/15 00:20:17;;;;;;;47.90;36.83;;;;;;;;;;5010459;28;20096;-70
2023/09/15 00:22:49;;;;;;;46.15;35.75;;;;;;;;;;5013518;28;20030;-70
2023/09/15 00:25:20;;;;;;;52.58;37.78;;;;;;;;;;5012572;28;20084;-70
2023/09/15 00:27:47;;;;;;;52.03;38.03;;;;;;;;;;5004795;28;20033;-71
2023/09/15 00:30:14;;;;;;;50.88;37.40;;;;;;;;;;5004695;28;20045;-71
2023/09/15 00:32:40;;;;;;;49.60;38.95;;;;;;;;;;5013250;28;20052;-71
2023/09/15 00:35:08;;;;;;;50.03;39.33;;;;;;;;;;5019414;28;20067;-71
2023/09/15 00:37:34;;;;;;;54.67;39.63;;;;;;;;;;5009287;28;20064;-71
2023/09/15 00:40:00;;;;;;;49.72;38.92;;;;;;;;;;5026542;28;20088;-71
2023/09/15 00:42:26;;;;;;;56.10;40.70;;;;;;;;;;5023369;28;20081;-71
2023/09/15 00:44:53;;;;;;;55.88;40.00;;;;;;;;;;5007315;28;20124;-70
2023/09/15 00:47:19;;;;;;;55.28;41.97;;;;;;;;;;5000967;28;20087;-70
2023/09/15 00:49:45;;;;;;;57.65;41.25;;;;;;;;;;5012820;28;20045;-70
2023/09/15 00:52:12;;;;;;;57.13;43.03;;;;;;;;;;5020581;28;20082;-72
2023/09/15 00:54:38;;;;;;;57.55;42.88;;;;;;;;;;5010618;28;20167;-69
2023/09/15 00:57:05;;;;;;;59.60;42.65;;;;;;;;;;5015734;28;20030;-71
2023/09/15 00:59:32;;;;;;;57.78;42.17;;;;;;;;;;5011251;28;20111;-72
2023/09/15 01:02:00;;;;;;;56.33;41.00;;;;;;;;;;5010386;28;20026;-70
2023/09/15 01:04:29;;;;;;;63.28;42.88;;;;;;;;;;5005498;28;20030;-70
2023/09/15 01:06:56;;;;;;;52.45;40.47;;;;;;;;;;5021132;28;20096;-71
2023/09/15 01:09:23;;;;;;;58.58;42.40;;;;;;;;;;5014169;28;20033;-71
2023/09/15 01:11:51;;;;;;;53.25;40.92;;;;;;;;;;5005371;28;20042;-71
2023/09/15 01:14:18;;;;;;;54.20;41.83;;;;;;;;;;5000866;28;20039;-70
2023/09/15 01:16:54;;;;;;;57.72;42.33;;;;;;;;;;5005784;28;20037;-70
2023/09/15 01:19:56;;;;;;;53.20;41.45;;;;;;;;;;5005717;28;20120;-70
2023/09/15 01:22:44;;;;;;;62.13;42.17;;;;;;;;;;4985430;28;20488;-70
2023/09/15 01:25:18;;;;;;;60.75;43.05;;;;;;;;;;5000239;28;20080;-72
2023/09/15 01:27:48;;;;;;;63.10;43.08;;;;;;;;;;5014685;28;20436;-70
2023/09/15 01:30:14;;;;;;;58.47;43.88;;;;;;;;;;4998285;28;20128;-70
2023/09/15 01:32:41;;;;;;;66.32;46.28;;;;;;;;;;5021068;28;20049;-70
2023/09/15 01:35:07;;;;;;;64.95;45.67;;;;;;;;;;5009099;28;20041;-72
2023/09/15 01:37:33;;;;;;;69.03;47.13;;;;;;;;;;5006548;28;20091;-71
2023/09/15 01:40:00;;;;;;;55.70;42.75;;;;;;;;;;5015997;28;20044;-70
2023/09/15 01:42:26;;;;;;;59.33;43.92;;;;;;;;;;5014522;28;20030;-70
2023/09/15 01:44:54;;;;;;;59.22;44.13;;;;;;;;;;5007348;28;20798;-70
2023/09/15 01:47:22;;;;;;;60.30;43.03;;;;;;;;;;5010769;28;20032;-70
2023/09/15 01:49:49;;;;;;;60.58;44.28;;;;;;;;;;5008961;28;20099;-72
2023/09/15 01:52:16;;;;;;;62.10;43.58;;;;;;;;;;5007105;28;20518;-70
2023/09/15 01:54:42;;;;;;;66.97;45.25;;;;;;;;;;5011882;28;20103;-71
2023/09/15 01:57:08;;;;;;;60.97;42.75;;;;;;;;;;5011543;28;20078;-70
2023/09/15 01:59:35;;;;;;;55.75;42.30;;;;;;;;;;4989613;28;20064;-71
2023/09/15 02:02:02;;;;;;;73.03;47.58;;;;;;;;;;5017749;28;20034;-70
2023/09/15 02:04:28;;;;;;;55.10;42.60;;;;;;;;;;5006527;28;20784;-70
2023/09/15 02:06:54;;;;;;;73.75;47.15;;;;;;;;;;5011186;28;20053;-71
2023/09/15 02:09:20;;;;;;;75.20;50.03;;;;;;;;;;5003104;28;20034;-71
2023/09/15 02:11:46;;;;;;;74.00;48.20;;;;;;;;;;5020051;28;20180;-71
2023/09/15 02:14:12;;;;;;;69.50;48.70;;;;;;;;;;4991636;28;20029;-71
2023/09/15 02:16:39;;;;;;;66.57;47.35;;;;;;;;;;5002870;28;20066;-71
2023/09/15 02:19:07;;;;;;;75.80;49.85;;;;;;;;;;5001916;28;20034;-71
2023/09/15 02:21:33;;;;;;;73.53;49.97;;;;;;;;;;5016702;28;20156;-71
2023/09/15 02:24:01;;;;;;;77.60;49.85;;;;;;;;;;5010700;28;20022;-71
2023/09/15 02:26:27;;;;;;;74.47;49.25;;;;;;;;;;5003167;28;20070;-71
2023/09/15 02:28:53;;;;;;;72.57;49.38;;;;;;;;;;5004748;28;20026;-71
2023/09/15 02:31:19;;;;;;;75.88;49.10;;;;;;;;;;5007761;28;20106;-71
2023/09/15 02:33:45;;;;;;;65.15;46.40;;;;;;;;;;5005212;28;20124;-71
2023/09/15 02:36:12;;;;;;;74.18;49.60;;;;;;;;;;5016285;28;20119;-71
2023/09/15 02:38:39;;;;;;;71.50;48.97;;;;;;;;;;5014342;28;20166;-70
2023/09/15 02:41:06;;;;;;;82.30;51.88;;;;;;;;;;5013002;28;20049;-70
2023/09/15 02:43:32;;;;;;;76.25;53.42;;;;;;;;;;4996266;28;20023;-70
2023/09/15 02:46:04;;;;;;;80.82;52.53;;;;;;;;;;5008061;28;20656;-70
2023/09/15 02:48:31;;;;;;;83.53;52.53;;;;;;;;;;5003897;28;20037;-70
2023/09/15 02:50:58;;;;;;;73.05;50.05;;;;;;;;;;5013827;28;20045;-70
2023/09/15 02:53:25;;;;;;;76.13;50.10;;;;;;;;;;5012352;28;20053;-71
2023/09/15 02:55:55;;;;;;;76.22;49.75;;;;;;;;;;5003430;28;20029;-70
2023/09/15 02:58:22;;;;;;;80.55;51.90;;;;;;;;;;5013377;28;20508;-71
2023/09/15 03:00:48;;;;;;;75.60;50.75;;;;;;;;;;5010954;28;20044;-70
2023/09/15 03:03:15;;;;;;;74.97;49.20;;;;;;;;;;5005165;28;20470;-70
2023/09/15 03:05:42;;;;;;;78.97;50.78;;;;;;;;;;5006885;28;20041;-72
2023/09/15 03:08:08;;;;;;;87.93;53.35;;;;;;;;;;5005882;28;20030;-70
2023/09/15 03:10:35;;;;;;;81.50;52.08;;;;;;;;;;5000423;28;20034;-70
2023/09/15 03:13:03;;;;;;;82.72;52.58;;;;;;;;;;5005578;28;20475;-70
2023/09/15 03:15:30;;;;;;;80.20;50.38;;;;;;;;;;5011062;28;20029;-70
2023/09/15 03:17:56;;;;;;;85.45;51.92;;;;;;;;;;5008158;28;20038;-71
2023/09/15 03:20:22;;;;;;;82.53;51.55;;;;;;;;;;5008980;28;20029;-71
2023/09/15 03:22:51;;;;;;;92.82;53.67;;;;;;;;;;5002820;28;20338;-71
2023/09/15 03:25:18;;;;;;;81.93;51.80;;;;;;;;;;5016539;28;20034;-71
2023/09/15 03:27:44;;;;;;;89.80;54.88;;;;;;;;;;5011908;28;20097;-71
2023/09/15 03:30:11;;;;;;;92.18;53.88;;;;;;;;;;5021194;28;20107;-71
2023/09/15 03:32:37;;;;;;;94.35;53.70;;;;;;;;;;5009927;28;20077;-71
2023/09/15 03:35:07;;;;;;;89.50;54.25;;;;;;;;;;5017938;28;20112;-70
2023/09/15 03:37:35;;;;;;;87.97;53.92;;;;;;;;;;5007522;28;20157;-70
2023/09/15 03:40:04;;;;;;;103.70;56.20;;;;;;;;;;5018596;28;20045;-70
2023/09/15 03:42:32;;;;;;;96.80;56.70;;;;;;;;;;5008173;28;20034;-70
2023/09/15 03:44:58;;;;;;;93.93;54.25;;;;;;;;;;5009028;28;20022;-70
2023/09/15 03:47:24;;;;;;;94.90;57.05;;;;;;;;;;4996991;28;20041;-70
2023/09/15 03:49:51;;;;;;;103.32;58.03;;;;;;;;;;5000949;28;20070;-71
2023/09/15 03:52:17;;;;;;;95.97;56.50;;;;;;;;;;5003219;28;20042;-71
2023/09/15 03:54:43;;;;;;;108.47;59.42;;;;;;;;;;4992263;28;20061;-70
2023/09/15 03:57:09;;;;;;;108.43;61.42;;;;;;;;;;5010356;28;20044;-70
2023/09/15 03:59:36;;;;;;;109.28;59.30;;;;;;;;;;5003662;28;20038;-70
2023/09/15 04:02:03;;;;;;;105.35;59.42;;;;;;;;;;5009893;28;20033;-71
2023/09/15 04:04:30;;;;;;;99.53;59.35;;;;;;;;;;5004396;28;20031;-70
2023/09/15 04:06:56;;;;;;;113.45;60.88;;;;;;;;;;5009407;28;20130;-71
2023/09/15 04:09:25;;;;;;;120.22;64.20;;;;;;;;;;5005591;28;20180;-70
2023/09/15 04:11:57;;;;;;;121.03;65.53;;;;;;;;;;5009721;28;20030;-71
2023/09/15 04:14:23;;;;;;;111.15;61.90;;;;;;;;;;5009842;28;20049;-70
2023/09/15 04:16:49;;;;;;;124.20;64.68;;;;;;;;;;5028577;28;20108;-71
2023/09/15 04:19:15;;;;;;;121.50;63.78;;;;;;;;;;5004692;28;20033;-71
2023/09/15 04:21:42;;;;;;;117.68;61.70;;;;;;;;;;5006497;28;20036;-72
2023/09/15 04:24:08;;;;;;;116.93;62.42;;;;;;;;;;5010444;28;20034;-70
2023/09/15 04:26:35;;;;;;;118.57;63.33;;;;;;;;;;5007618;28;20506;-71
2023/09/15 04:29:02;;;;;;;121.60;62.55;;;;;;;;;;5009183;28;20038;-71
2023/09/15 04:31:28;;;;;;;115.30;61.55;;;;;;;;;;4992300;28;20042;-71
2023/09/15 04:33:54;;;;;;;114.50;61.88;;;;;;;;;;4984959;28;20061;-70
2023/09/15 04:36:21;;;;;;;117.07;64.43;;;;;;;;;;5009608;28;20049;-71
2023/09/15 04:38:47;;;;;;;127.50;65.60;;;;;;;;;;4998846;28;20058;-72
2023/09/15 04:41:13;;;;;;;130.13;67.85;;;;;;;;;;5019264;28;20053;-71
2023/09/15 04:43:40;;;;;;;129.30;67.78;;;;;;;;;;5011182;28;20034;-71
2023/09/15 04:46:06;;;;;;;124.63;66.82;;;;;;;;;;5021978;28;20036;-71
2023/09/15 04:48:34;;;;;;;149.00;74.82;;;;;;;;;;5010611;28;20083;-71
2023/09/15 04:51:01;;;;;;;160.85;74.85;;;;;;;;;;5006074;28;20116;-71
2023/09/15 04:53:28;;;;;;;165.52;79.32;;;;;;;;;;5011677;28;20149;-71
2023/09/15 04:55:54;;;;;;;156.07;79.10;;;;;;;;;;5018464;28;20067;-71
2023/09/15 04:58:20;;;;;;;173.27;80.47;;;;;;;;;;5023408;28;20499;-71
2023/09/15 05:00:48;;;;;;;165.02;80.07;;;;;;;;;;5017440;28;20522;-71
2023/09/15 05:03:14;;;;;;;153.45;77.53;;;;;;;;;;5007233;28;20022;-71
2023/09/15 05:05:43;;;;;;;144.98;75.50;;;;;;;;;;5002219;28;20034;-71
2023/09/15 05:08:10;;;;;;;154.73;78.53;;;;;;;;;;5006522;28;20439;-71
2023/09/15 05:10:36;;;;;;;161.38;77.15;;;;;;;;;;5006094;28;20157;-71
2023/09/15 05:13:05;;;;;;;143.85;77.95;;;;;;;;;;5003997;28;20117;-70
2023/09/15 05:15:34;;;;;;;151.48;76.22;;;;;;;;;;5006880;28;20034;-70
2023/09/15 05:18:00;;;;;;;153.70;78.35;;;;;;;;;;5007589;28;20041;-72
2023/09/15 05:20:29;;;;;;;144.52;76.30;;;;;;;;;;5005334;28;20038;-71
2023/09/15 05:22:56;;;;;;;142.77;74.93;;;;;;;;;;5011407;28;20026;-71
2023/09/15 05:25:22;;;;;;;137.70;75.38;;;;;;;;;;5015487;28;20041;-71
2023/09/15 05:27:49;;;;;;;136.68;72.85;;;;;;;;;;5014809;28;20038;-70
2023/09/15 05:30:15;;;;;;;138.48;72.40;;;;;;;;;;5008271;28;20356;-71
2023/09/15 05:32:42;;;;;;;137.30;68.97;;;;;;;;;;5008663;28;20603;-71
2023/09/15 05:35:10;;;;;;;123.28;67.72;;;;;;;;;;5002038;28;20049;-71
2023/09/15 05:37:36;;;;;;;119.00;65.85;;;;;;;;;;5015042;28;20032;-71
2023/09/15 05:40:03;;;;;;;132.20;69.57;;;;;;;;;;5017580;28;20469;-71
2023/09/15 05:42:29;;;;;;;143.48;70.20;;;;;;;;;;5000936;28;20068;-71
2023/09/15 05:44:56;;;;;;;118.20;66.28;;;;;;;;;;5001225;28;20034;-71
2023/09/15 05:47:25;;;;;;;123.55;66.70;;;;;;;;;;4998018;28;20108;-71
2023/09/15 05:49:51;;;;;;;124.25;67.35;;;;;;;;;;5008146;28;20054;-71
2023/09/15 05:52:18;;;;;;;110.03;64.38;;;;;;;;;;5008712;28;20447;-71
2023/09/15 05:54:44;;;;;;;119.25;65.47;;;;;;;;;;5008515;28;20140;-70
2023/09/15 05:57:10;;;;;;;125.28;67.07;;;;;;;;;;5003702;28;20045;-70
2023/09/15 05:59:36;;;;;;;128.30;68.85;;;;;;;;;;5000863;28;20038;-71
2023/09/15 06:02:02;;;;;;;117.38;66.28;;;;;;;;;;5013519;28;20164;-71
2023/09/15 06:04:29;;;;;;;116.80;66.50;;;;;;;;;;5005649;28;20025;-70
2023/09/15 06:06:55;;;;;;;124.57;67.20;;;;;;;;;;5004214;28;20030;-72
2023/09/15 06:09:21;;;;;;;109.82;64.07;;;;;;;;;;4993974;28;20034;-71
2023/09/15 06:11:47;;;;;;;110.93;63.03;;;;;;;;;;5005033;28;20034;-71
2023/09/15 06:14:13;;;;;;;105.00;60.58;;;;;;;;;;5006840;28;20158;-71
2023/09/15 06:16:39;;;;;;;110.72;62.13;;;;;;;;;;5000122;28;20040;-71
2023/09/15 06:19:06;;;;;;;120.70;61.72;;;;;;;;;;4995961;28;20065;-72
2023/09/15 06:21:32;;;;;;;99.13;60.83;;;;;;;;;;4996428;28;20038;-72
2023/09/15 06:23:59;;;;;;;101.20;59.80;;;;;;;;;;4995580;28;20031;-71
2023/09/15 06:26:25;;;;;;;90.88;55.17;;;;;;;;;;4996043;28;20395;-72
2023/09/15 06:28:51;;;;;;;88.85;57.25;;;;;;;;;;4998969;28;20029;-71
2023/09/15 06:31:18;;;;;;;87.90;52.95;;;;;;;;;;4997247;28;20042;-71
2023/09/15 06:33:45;;;;;;;84.47;49.55;;;;;;;;;;4998932;28;20033;-72
2023/09/15 06:36:11;;;;;;;77.18;48.85;;;;;;;;;;4995411;28;20038;-70
2023/09/15 06:38:37;;;;;;;68.25;45.70;;;;;;;;;;4989728;28;20056;-72
2023/09/15 06:41:03;;;;;;;57.80;40.65;;;;;;;;;;4995819;28;20033;-72
2023/09/15 06:43:29;;;;;;;52.78;38.00;;;;;;;;;;4993390;28;20041;-72
2023/09/15 06:45:57;;;;;;;52.13;34.30;;;;;;;;;;5000385;28;20511;-71
2023/09/15 06:48:23;;;;;;;47.80;32.25;;;;;;;;;;4998581;28;20096;-71
2023/09/15 06:50:49;;;;;;;45.28;30.63;;;;;;;;;;5003006;28;20049;-71
2023/09/15 06:53:15;;;;;;;44.60;31.58;;;;;;;;;;4998333;28;20044;-70
2023/09/15 06:55:41;;;;;;;40.58;29.30;;;;;;;;;;5000346;28;20534;-71
2023/09/15 06:58:08;;;;;;;46.00;29.45;;;;;;;;;;4998910;28;20050;-69
2023/09/15 07:00:34;;;;;;;37.17;28.60;;;;;;;;;;4997350;28;20038;-69
2023/09/15 07:03:00;;;;;;;38.67;28.35;;;;;;;;;;5000193;28;20104;-70
2023/09/15 07:05:26;;;;;;;37.60;27.02;;;;;;;;;;4997861;28;20035;-71
2023/09/15 07:07:52;;;;;;;35.63;25.35;;;;;;;;;;4996933;28;20034;-70
2023/09/15 07:10:19;;;;;;;37.65;26.77;;;;;;;;;;4998447;28;20938;-70
2023/09/15 07:12:45;;;;;;;33.78;25.15;;;;;;;;;;4993257;28;20035;-70
2023/09/15 07:15:13;;;;;;;32.72;24.33;;;;;;;;;;4996448;28;20104;-70
2023/09/15 07:17:40;;;;;;;30.98;20.95;;;;;;;;;;4997375;28;20046;-71
2023/09/15 07:20:06;;;;;;;27.10;20.88;;;;;;;;;;4993409;28;20057;-69
2023/09/15 07:22:32;;;;;;;27.45;19.80;;;;;;;;;;5000048;28;20049;-71
2023/09/15 07:24:58;;;;;;;26.25;19.17;;;;;;;;;;4995866;28;20155;-71
2023/09/15 07:27:25;;;;;;;26.30;18.73;;;;;;;;;;4992607;28;20042;-71
2023/09/15 07:29:51;;;;;;;28.92;18.42;;;;;;;;;;4994163;28;20045;-70
2023/09/15 07:32:17;;;;;;;30.40;18.15;;;;;;;;;;5000931;28;20063;-70
2023/09/15 07:34:44;;;;;;;25.25;18.38;;;;;;;;;;4995237;28;20030;-70
2023/09/15 07:37:14;;;;;;;26.50;16.67;;;;;;;;;;4993804;28;20084;-71
2023/09/15 07:39:40;;;;;;;26.17;16.73;;;;;;;;;;5000229;28;20070;-71
2023/09/15 07:42:08;;;;;;;25.33;16.40;;;;;;;;;;4994536;28;20432;-70
2023/09/15 07:44:34;;;;;;;21.50;14.75;;;;;;;;;;4996622;28;20415;-69
2023/09/15 07:47:00;;;;;;;26.52;15.13;;;;;;;;;;4992598;28;20465;-69
2023/09/15 07:49:27;;;;;;;21.50;13.48;;;;;;;;;;4993117;28;20042;-70
2023/09/15 07:51:54;;;;;;;20.25;13.35;;;;;;;;;;4997213;28;20124;-71
2023/09/15 07:54:21;;;;;;;20.10;12.27;;;;;;;;;;4995382;28;20471;-71
2023/09/15 07:56:47;;;;;;;19.02;13.02;;;;;;;;;;4991181;28;20027;-70
2023/09/15 07:59:14;;;;;;;17.95;11.55;;;;;;;;;;4998423;28;20404;-70
2023/09/15 08:01:40;;;;;;;19.90;11.00;;;;;;;;;;4996494;28;20069;-70
2023/09/15 08:04:07;;;;;;;14.55;10.02;;;;;;;;;;4997452;28;20431;-70
2023/09/15 08:06:33;;;;;;;17.70;11.13;;;;;;;;;;4997636;28;20085;-69
2023/09/15 08:08:59;;;;;;;17.73;8.85;;;;;;;;;;4996399;28;20108;-70
2023/09/15 08:11:25;;;;;;;14.07;8.55;;;;;;;;;;4992470;28;20029;-72
2023/09/15 08:13:51;;;;;;;14.65;8.38;;;;;;;;;;5000849;28;20418;-70
2023/09/15 08:16:17;;;;;;;14.35;7.93;;;;;;;;;;4992619;28;20550;-70
2023/09/15 08:18:43;;;;;;;12.80;8.10;;;;;;;;;;4998225;28;20037;-69
2023/09/15 08:21:10;;;;;;;10.73;7.70;;;;;;;;;;4993973;28;20478;-70
2023/09/15 08:23:36;;;;;;;16.40;7.65;;;;;;;;;;4996508;28;20034;-70
2023/09/15 08:26:02;;;;;;;10.70;7.32;;;;;;;;;;4991205;28;20047;-70
2023/09/15 08:28:28;;;;;;;11.25;7.32;;;;;;;;;;4997534;28;20498;-70
2023/09/15 08:30:55;;;;;;;18.00;7.57;;;;;;;;;;4998610;28;20061;-69
2023/09/15 08:33:21;;;;;;;13.98;7.05;;;;;;;;;;4992883;28;20041;-70
2023/09/15 08:35:47;;;;;;;14.30;6.70;;;;;;;;;;4993521;28;20408;-69
2023/09/15 08:38:14;;;;;;;10.68;6.63;;;;;;;;;;4994981;28;20088;-69
2023/09/15 08:40:48;;;;;;;13.75;6.05;;;;;;;;;;5002441;28;20048;-70
2023/09/15 08:43:15;;;;;;;11.40;6.05;;;;;;;;;;4998469;28;20046;-73
2023/09/15 08:45:44;;;;;;;11.77;6.30;;;;;;;;;;4998481;28;20084;-71
2023/09/15 08:48:11;;;;;;;10.85;5.30;;;;;;;;;;4996441;28;20030;-72
2023/09/15 08:50:38;;;;;;;9.55;5.13;;;;;;;;;;4999243;28;20035;-71
2023/09/15 08:53:04;;;;;;;8.95;4.70;;;;;;;;;;5002929;28;20038;-71
2023/09/15 08:55:31;;;;;;;10.10;4.45;;;;;;;;;;4997150;28;20034;-71
2023/09/15 08:57:58;;;;;;;8.35;4.57;;;;;;;;;;4987585;28;20371;-71
2023/09/15 09:00:24;;;;;;;7.40;5.47;;;;;;;;;;4994571;28;20038;-70
2023/09/15 09:02:51;;;;;;;12.63;6.03;;;;;;;;;;4993517;28;20033;-71
2023/09/15 09:05:18;;;;;;;12.60;6.22;;;;;;;;;;4994667;28;20030;-71
2023/09/15 09:07:45;;;;;;;11.68;6.10;;;;;;;;;;4990041;28;20045;-71
2023/09/15 09:10:11;;;;;;;9.23;6.07;;;;;;;;;;5000166;28;20044;-70
2023/09/15 09:12:37;;;;;;;9.35;5.85;;;;;;;;;;4996287;28;20143;-71
2023/09/15 09:15:03;;;;;;;10.88;6.35;;;;;;;;;;4992313;28;20026;-71
2023/09/15 09:17:29;;;;;;;11.88;5.72;;;;;;;;;;4994701;28;20159;-70
2023/09/15 09:19:57;;;;;;;9.00;5.93;;;;;;;;;;5000133;28;20430;-71
2023/09/15 09:22:23;;;;;;;10.15;5.88;;;;;;;;;;4999207;28;20122;-71
2023/09/15 09:24:55;;;;;;;10.48;6.50;;;;;;;;;;4998192;28;20038;-70
2023/09/15 09:27:21;;;;;;;12.68;6.10;;;;;;;;;;4993534;28;20025;-70
2023/09/15 09:29:48;;;;;;;12.32;5.95;;;;;;;;;;4995776;28;20037;-70
2023/09/15 09:32:15;;;;;;;10.45;6.50;;;;;;;;;;4995148;28;20854;-69
2023/09/15 09:34:41;;;;;;;13.48;6.57;;;;;;;;;;4997790;28;20046;-70
2023/09/15 09:37:08;;;;;;;10.55;5.80;;;;;;;;;;4991713;28;20040;-69
2023/09/15 09:39:35;;;;;;;14.13;6.85;;;;;;;;;;4990797;28;20069;-70
2023/09/15 09:42:02;;;;;;;13.45;7.10;;;;;;;;;;4994357;28;20034;-71
2023/09/15 09:44:30;;;;;;;12.05;7.65;;;;;;;;;;4993147;28;21195;-70
2023/09/15 09:46:57;;;;;;;9.43;6.93;;;;;;;;;;4992597;28;20061;-70
2023/09/15 09:49:23;;;;;;;12.60;7.22;;;;;;;;;;4995038;28;20030;-70
2023/09/15 09:51:53;;;;;;;11.90;7.47;;;;;;;;;;4994970;28;20133;-71
2023/09/15 09:54:19;;;;;;;12.82;7.53;;;;;;;;;;4993267;28;20515;-71
2023/09/15 09:56:49;;;;;;;11.48;6.80;;;;;;;;;;4996806;28;20120;-70
2023/09/15 09:59:15;;;;;;;12.60;7.30;;;;;;;;;;4995944;28;20077;-70
2023/09/15 10:01:41;;;;;;;13.25;7.40;;;;;;;;;;4994950;28;20526;-71
2023/09/15 10:04:08;;;;;;;11.35;7.15;;;;;;;;;;4988404;28;20045;-71
2023/09/15 10:06:36;;;;;;;11.68;6.78;;;;;;;;;;4996217;28;20615;-71
2023/09/15 10:09:05;;;;;;;11.52;6.75;;;;;;;;;;4999057;28;20061;-70
2023/09/15 10:11:33;;;;;;;10.53;6.70;;;;;;;;;;4999194;28;20037;-71
2023/09/15 10:14:00;;;;;;;14.73;7.15;;;;;;;;;;4994142;28;20033;-70
2023/09/15 10:16:26;;;;;;;12.60;7.35;;;;;;;;;;4994306;28;20033;-70
2023/09/15 10:18:53;;;;;;;11.93;7.20;;;;;;;;;;4991649;28;20069;-70
2023/09/15 10:21:20;;;;;;;12.20;8.07;;;;;;;;;;4994452;28;20034;-70
2023/09/15 10:23:46;;;;;;;11.60;7.15;;;;;;;;;;4993926;28;20078;-71
2023/09/15 10:26:12;;;;;;;14.77;6.55;;;;;;;;;;4995877;28;20550;-71
2023/09/15 10:28:40;;;;;;;10.77;6.00;;;;;;;;;;5001260;28;20072;-70
2023/09/15 10:31:06;;;;;;;10.40;6.50;;;;;;;;;;4998111;28;20046;-70
2023/09/15 10:33:33;;;;;;;17.13;6.78;;;;;;;;;;4999757;28;20538;-70
2023/09/15 10:36:03;;;;;;;13.70;7.47;;;;;;;;;;5001822;28;20250;-70
2023/09/15 10:38:30;;;;;;;12.30;6.55;;;;;;;;;;5001006;28;20410;-70
2023/09/15 10:40:58;;;;;;;12.23;6.72;;;;;;;;;;5005152;28;20037;-71
2023/09/15 10:43:24;;;;;;;15.77;7.43;;;;;;;;;;5029213;28;20071;-70
2023/09/15 10:45:55;;;;;;;11.23;6.55;;;;;;;;;;5018744;28;20030;-70
2023/09/15 10:48:22;;;;;;;8.77;6.70;;;;;;;;;;5020471;28;20194;-74
2023/09/15 10:50:48;;;;;;;15.77;7.30;;;;;;;;;;5005664;28;20053;-72
2023/09/15 10:53:15;;;;;;;11.20;6.28;;;;;;;;;;5026242;28;20041;-71
2023/09/15 10:55:42;;;;;;;12.32;7.15;;;;;;;;;;5022496;28;20049;-72
2023/09/15 10:58:09;;;;;;;9.73;6.35;;;;;;;;;;5013002;28;20049;-70
2023/09/15 11:00:36;;;;;;;14.27;7.18;;;;;;;;;;5019961;28;20352;-70
2023/09/15 11:03:04;;;;;;;15.02;6.70;;;;;;;;;;5025634;28;20034;-71
2023/09/15 11:05:30;;;;;;;13.10;6.68;;;;;;;;;;5024906;28;20034;-69
2023/09/15 11:07:56;;;;;;;8.18;4.80;;;;;;;;;;5026760;28;20164;-70
2023/09/15 11:10:32;;;;;;;16.10;5.25;;;;;;;;;;5019129;28;20072;-72
2023/09/15 11:13:02;;;;;;;7.60;5.15;;;;;;;;;;5035376;28;20029;-72
2023/09/15 11:15:28;;;;;;;11.43;6.03;;;;;;;;;;5015906;28;20076;-69
2023/09/15 11:17:54;;;;;;;10.20;5.70;;;;;;;;;;5019091;28;20049;-72
2023/09/15 11:20:21;;;;;;;9.48;6.07;;;;;;;;;;5013479;28;20073;-70
2023/09/15 11:22:47;;;;;;;12.63;5.95;;;;;;;;;;5026532;28;20053;-70
2023/09/15 11:25:15;;;;;;;11.10;6.07;;;;;;;;;;5024979;28;20053;-69
2023/09/15 11:27:42;;;;;;;14.02;5.68;;;;;;;;;;5023771;28;20429;-74
2023/09/15 11:30:08;;;;;;;10.30;5.80;;;;;;;;;;5018712;28;20103;-70
2023/09/15 11:32:37;;;;;;;12.60;5.65;;;;;;;;;;5025560;28;20111;-70
2023/09/15 11:35:05;;;;;;;9.50;5.57;;;;;;;;;;5016772;28;20037;-70
2023/09/15 11:37:34;;;;;;;10.43;5.68;;;;;;;;;;5017335;28;20054;-71
2023/09/15 11:40:02;;;;;;;;;;;;;;;;;;5018247;28;20590;-70
2023/09/15 11:42:29;;;;;;;8.95;5.22;;;;;;;;;;5008576;28;20443;-70
2023/09/15 11:44:55;;;;;;;7.63;5.10;;;;;;;;;;5022395;28;20398;-71
2023/09/15 11:47:21;;;;;;;13.05;5.25;;;;;;;;;;5022036;28;20029;-71
2023/09/15 11:49:48;;;;;;;11.10;5.78;;;;;;;;;;5014495;28;20069;-71
2023/09/15 11:52:14;;;;;;;10.70;5.15;;;;;;;;;;5022177;28;20052;-70
2023/09/15 11:54:44;;;;;;;7.60;4.72;;;;;;;;;;5017900;28;20030;-69
2023/09/15 11:57:11;;;;;;;7.28;4.25;;;;;;;;;;5018476;28;20033;-70
2023/09/15 11:59:37;;;;;;;7.45;4.50;;;;;;;;;;5006051;28;20033;-70
2023/09/15 12:02:04;;;;;;;6.95;3.72;;;;;;;;;;5008312;28;20034;-70
2023/09/15 12:04:30;;;;;;;12.90;4.95;;;;;;;;;;5011040;28;20136;-71
2023/09/15 12:06:56;;;;;;;7.40;4.55;;;;;;;;;;5008528;28;20060;-71
2023/09/15 12:09:22;;;;;;;7.15;4.30;;;;;;;;;;5011830;28;20064;-71
2023/09/15 12:11:50;;;;;;;9.95;4.18;;;;;;;;;;5011955;28;20049;-71
2023/09/15 12:14:16;;;;;;;9.88;4.80;;;;;;;;;;5011796;28;20117;-71
2023/09/15 12:16:46;;;;;;;7.50;3.72;;;;;;;;;;5004767;28;20041;-71
2023/09/15 12:19:12;;;;;;;6.93;3.40;;;;;;;;;;4999272;28;20064;-71
2023/09/15 12:21:50;;;;;;;6.30;3.65;;;;;;;;;;5010521;28;20033;-71
2023/09/15 12:24:16;;;;;;;8.82;3.75;;;;;;;;;;5009480;28;20096;-71
2023/09/15 12:26:43;;;;;;;8.35;3.22;;;;;;;;;;5008417;28;20026;-71
2023/09/15 12:29:09;;;;;;;11.55;3.67;;;;;;;;;;5006162;28;20069;-71
2023/09/15 12:31:41;;;;;;;7.03;3.40;;;;;;;;;;5009599;28;20034;-69
2023/09/15 12:34:07;;;;;;;5.70;3.63;;;;;;;;;;5011537;28;20034;-70
2023/09/15 12:36:34;;;;;;;9.65;3.03;;;;;;;;;;5009385;28;20033;-71
2023/09/15 12:39:00;;;;;;;5.47;2.67;;;;;;;;;;5006035;28;20032;-71
2023/09/15 12:41:26;;;;;;;5.68;3.03;;;;;;;;;;5011158;28;20104;-70
2023/09/15 12:43:53;;;;;;;7.47;4.15;;;;;;;;;;5011022;28;20121;-71
2023/09/15 12:46:19;;;;;;;11.05;3.92;;;;;;;;;;5001642;28;20038;-74
2023/09/15 12:48:45;;;;;;;8.20;3.47;;;;;;;;;;5010070;28;20042;-71
2023/09/15 12:51:11;;;;;;;6.53;2.40;;;;;;;;;;4996642;28;20050;-70
2023/09/15 12:53:37;;;;;;;5.32;2.90;;;;;;;;;;4992613;28;20045;-70
2023/09/15 12:56:03;;;;;;;7.30;3.60;;;;;;;;;;5000075;28;20034;-70
2023/09/15 12:58:31;;;;;;;7.22;4.30;;;;;;;;;;4998053;28;20096;-71
2023/09/15 13:00:57;;;;;;;9.00;4.03;;;;;;;;;;4996643;28;20061;-70
2023/09/15 13:03:24;;;;;;;11.57;5.00;;;;;;;;;;4999524;28;20392;-70
2023/09/15 13:05:51;;;;;;;11.73;5.18;;;;;;;;;;4993068;28;20419;-70
2023/09/15 13:08:17;;;;;;;7.07;4.43;;;;;;;;;;5001635;28;20093;-70
2023/09/15 13:10:44;;;;;;;7.00;3.50;;;;;;;;;;4999465;28;20058;-71
2023/09/15 13:13:10;;;;;;;6.15;4.35;;;;;;;;;;5001709;28;20132;-70
2023/09/15 13:15:37;;;;;;;12.00;5.68;;;;;;;;;;5005854;28;20061;-70
2023/09/15 13:18:03;;;;;;;10.20;5.03;;;;;;;;;;4997566;28;20468;-70
2023/09/15 13:20:29;;;;;;;9.63;5.72;;;;;;;;;;4993395;28;20423;-71
2023/09/15 13:22:56;;;;;;;11.35;5.85;;;;;;;;;;4998420;28;20109;-71
2023/09/15 13:25:22;;;;;;;11.23;6.35;;;;;;;;;;5004903;28;20040;-70
2023/09/15 13:27:48;;;;;;;12.57;6.95;;;;;;;;;;5004760;28;20343;-71
2023/09/15 13:30:14;;;;;;;10.93;6.70;;;;;;;;;;5005526;28;20175;-69
2023/09/15 13:32:41;;;;;;;12.13;6.40;;;;;;;;;;5001245;28;20034;-69
2023/09/15 13:35:07;;;;;;;10.15;5.78;;;;;;;;;;5006668;28;20030;-70
2023/09/15 13:37:36;;;;;;;12.00;5.88;;;;;;;;;;5004450;28;20034;-70
2023/09/15 13:40:03;;;;;;;10.25;5.65;;;;;;;;;;5008137;28;20068;-71
2023/09/15 13:42:33;;;;;;;10.48;5.90;;;;;;;;;;5007060;28;20034;-71
2023/09/15 13:45:03;;;;;;;16.73;7.32;;;;;;;;;;4995604;28;20018;-71
2023/09/15 13:47:33;;;;;;;10.25;6.40;;;;;;;;;;5008513;28;20030;-69
2023/09/15 13:50:00;;;;;;;12.98;6.68;;;;;;;;;;5014667;28;20317;-71
2023/09/15 13:52:26;;;;;;;11.55;6.90;;;;;;;;;;5004824;28;20033;-71
2023/09/15 13:54:55;;;;;;;16.40;8.73;;;;;;;;;;5015026;28;20116;-71
2023/09/15 13:57:21;;;;;;;27.05;14.15;;;;;;;;;;5004020;28;20442;-71
2023/09/15 13:59:47;;;;;;;19.67;9.93;;;;;;;;;;5003543;28;20132;-70
2023/09/15 14:02:14;;;;;;;15.45;7.38;;;;;;;;;;5021233;28;20052;-71
2023/09/15 14:04:40;;;;;;;12.95;6.38;;;;;;;;;;5007952;28;20538;-70
2023/09/15 14:07:06;;;;;;;12.52;6.30;;;;;;;;;;5016596;28;20052;-70
2023/09/15 14:09:34;;;;;;;12.90;6.70;;;;;;;;;;5009585;28;20581;-70
2023/09/15 14:12:00;;;;;;;14.57;5.65;;;;;;;;;;5008975;28;20056;-70
2023/09/15 14:14:26;;;;;;;11.38;5.78;;;;;;;;;;5013647;28;20041;-70
2023/09/15 14:16:53;;;;;;;11.90;6.03;;;;;;;;;;5001860;28;20022;-71
2023/09/15 14:19:19;;;;;;;13.77;6.55;;;;;;;;;;5004290;28;20029;-71